sensor_id;sensor_type;location;lat;lon;timestamp;P1;durP1;ratioP1;P2;durP2;ratioP2
19796;SDS011;10058;57.654;12.044;2023-09-19T00:00:36;319.27;;;72.82;;
19796;SDS011;10058;57.654;12.044;2023-09-19T00:03:02;309.98;;;69.45;;
19796;SDS011;10058;57.654;12.044;2023-09-19T00:05:28;314.30;;;71.57;;
19796;SDS011;10058;57.654;12.044;2023-09-19T00:07:54;314.70;;;69.00;;
19796;SDS011;10058;57.654;12.044;2023-09-19T00:10:24;313.05;;;67.78;;
19796;SDS011;10058;57.654;12.044;2023-09-19T00:12:52;315.08;;;67.93;;
19796;SDS011;10058;57.654;12.044;2023-09-19T00:15:21;311.38;;;67.90;;
19796;SDS011;10058;57.654;12.044;2023-09-19T00:17:47;317.00;;;70.28;;
19796;SDS011;10058;57.654;12.044;2023-09-19T00:20:12;317.17;;;72.40;;
19796;SDS011;10058;57.654;12.044;2023-09-19T00:22:40;313.85;;;70.47;;
19796;SDS011;10058;57.654;12.044;2023-09-19T00:25:07;310.30;;;67.28;;
19796;SDS011;10058;57.654;12.044;2023-09-19T00:27:34;312.23;;;67.60;;
19796;SDS011;10058;57.654;12.044;2023-09-19T00:30:00;311.30;;;67.67;;
19796;SDS011;10058;57.654;12.044;2023-09-19T00:32:25;308.13;;;65.67;;
19796;SDS011;10058;57.654;12.044;2023-09-19T00:34:56;305.48;;;62.25;;
19796;SDS011;10058;57.654;12.044;2023-09-19T00:37:21;313.40;;;66.47;;
19796;SDS011;10058;57.654;12.044;2023-09-19T00:39:47;309.63;;;66.00;;
19796;SDS011;10058;57.654;12.044;2023-09-19T00:42:17;309.43;;;67.77;;
19796;SDS011;10058;57.654;12.044;2023-09-19T00:44:46;308.60;;;68.18;;
19796;SDS011;10058;57.654;12.044;2023-09-19T00:47:11;314.42;;;69.60;;
19796;SDS011;10058;57.654;12.044;2023-09-19T00:49:41;314.95;;;69.10;;
19796;SDS011;10058;57.654;12.044;2023-09-19T00:52:07;308.47;;;65.50;;
19796;SDS011;10058;57.654;12.044;2023-09-19T00:54:35;314.07;;;68.77;;
19796;SDS011;10058;57.654;12.044;2023-09-19T00:57:01;307.30;;;66.57;;
19796;SDS011;10058;57.654;12.044;2023-09-19T00:59:26;320.37;;;74.03;;
19796;SDS011;10058;57.654;12.044;2023-09-19T01:01:53;309.77;;;67.72;;
19796;SDS011;10058;57.654;12.044;2023-09-19T01:04:19;314.33;;;71.47;;
19796;SDS011;10058;57.654;12.044;2023-09-19T01:06:45;313.67;;;72.27;;
19796;SDS011;10058;57.654;12.044;2023-09-19T01:09:11;308.73;;;65.67;;
19796;SDS011;10058;57.654;12.044;2023-09-19T01:11:40;308.35;;;65.10;;
19796;SDS011;10058;57.654;12.044;2023-09-19T01:22:30;313.15;;;66.72;;
19796;SDS011;10058;57.654;12.044;2023-09-19T01:25:34;312.10;;;65.78;;
19796;SDS011;10058;57.654;12.044;2023-09-19T01:28:10;308.20;;;64.43;;
19796;SDS011;10058;57.654;12.044;2023-09-19T01:30:47;309.98;;;66.22;;
19796;SDS011;10058;57.654;12.044;2023-09-19T01:33:15;309.55;;;65.40;;
19796;SDS011;10058;57.654;12.044;2023-09-19T01:35:40;310.07;;;66.50;;
19796;SDS011;10058;57.654;12.044;2023-09-19T01:38:06;305.87;;;64.33;;
19796;SDS011;10058;57.654;12.044;2023-09-19T01:40:41;314.65;;;66.82;;
19796;SDS011;10058;57.654;12.044;2023-09-19T01:43:16;314.25;;;68.45;;
19796;SDS011;10058;57.654;12.044;2023-09-19T01:52:12;316.98;;;65.97;;
19796;SDS011;10058;57.654;12.044;2023-09-19T01:54:16;313.40;;;65.77;;
19796;SDS011;10058;57.654;12.044;2023-09-19T01:56:57;312.92;;;65.20;;
19796;SDS011;10058;57.654;12.044;2023-09-19T01:59:32;314.00;;;65.53;;
19796;SDS011;10058;57.654;12.044;2023-09-19T02:02:00;312.25;;;66.35;;
19796;SDS011;10058;57.654;12.044;2023-09-19T02:04:27;307.25;;;63.85;;
19796;SDS011;10058;57.654;12.044;2023-09-19T02:06:52;310.42;;;65.63;;
19796;SDS011;10058;57.654;12.044;2023-09-19T02:09:18;309.50;;;65.70;;
19796;SDS011;10058;57.654;12.044;2023-09-19T02:11:43;312.53;;;68.27;;
19796;SDS011;10058;57.654;12.044;2023-09-19T02:14:09;310.77;;;68.20;;
19796;SDS011;10058;57.654;12.044;2023-09-19T02:16:34;317.27;;;73.03;;
19796;SDS011;10058;57.654;12.044;2023-09-19T02:19:00;317.88;;;76.88;;
19796;SDS011;10058;57.654;12.044;2023-09-19T02:21:30;308.50;;;65.95;;
19796;SDS011;10058;57.654;12.044;2023-09-19T02:23:55;305.70;;;62.72;;
19796;SDS011;10058;57.654;12.044;2023-09-19T02:26:21;311.27;;;68.32;;
19796;SDS011;10058;57.654;12.044;2023-09-19T02:28:50;315.90;;;68.43;;
19796;SDS011;10058;57.654;12.044;2023-09-19T02:31:15;312.30;;;70.33;;
19796;SDS011;10058;57.654;12.044;2023-09-19T02:33:41;311.83;;;65.80;;
19796;SDS011;10058;57.654;12.044;2023-09-19T02:36:07;313.45;;;69.93;;
19796;SDS011;10058;57.654;12.044;2023-09-19T02:38:33;317.85;;;69.75;;
19796;SDS011;10058;57.654;12.044;2023-09-19T02:40:59;312.40;;;67.28;;
19796;SDS011;10058;57.654;12.044;2023-09-19T02:43:24;313.87;;;69.20;;
19796;SDS011;10058;57.654;12.044;2023-09-19T02:45:49;316.03;;;68.33;;
19796;SDS011;10058;57.654;12.044;2023-09-19T02:48:15;308.83;;;65.27;;
19796;SDS011;10058;57.654;12.044;2023-09-19T02:50:41;313.20;;;66.60;;
19796;SDS011;10058;57.654;12.044;2023-09-19T02:53:07;312.63;;;67.03;;
19796;SDS011;10058;57.654;12.044;2023-09-19T02:55:32;316.13;;;68.60;;
19796;SDS011;10058;57.654;12.044;2023-09-19T02:57:58;315.00;;;67.93;;
19796;SDS011;10058;57.654;12.044;2023-09-19T03:00:25;311.17;;;68.05;;
19796;SDS011;10058;57.654;12.044;2023-09-19T03:02:55;317.25;;;70.38;;
19796;SDS011;10058;57.654;12.044;2023-09-19T03:05:21;309.77;;;66.18;;
19796;SDS011;10058;57.654;12.044;2023-09-19T03:07:48;314.27;;;67.90;;
19796;SDS011;10058;57.654;12.044;2023-09-19T03:10:15;312.67;;;69.68;;
19796;SDS011;10058;57.654;12.044;2023-09-19T03:12:41;311.42;;;68.30;;
19796;SDS011;10058;57.654;12.044;2023-09-19T03:15:07;311.35;;;67.80;;
19796;SDS011;10058;57.654;12.044;2023-09-19T03:17:33;309.92;;;68.15;;
19796;SDS011;10058;57.654;12.044;2023-09-19T03:19:59;307.95;;;67.57;;
19796;SDS011;10058;57.654;12.044;2023-09-19T03:22:24;314.10;;;72.47;;
19796;SDS011;10058;57.654;12.044;2023-09-19T03:24:50;315.07;;;72.87;;
19796;SDS011;10058;57.654;12.044;2023-09-19T03:27:16;316.33;;;70.83;;
19796;SDS011;10058;57.654;12.044;2023-09-19T03:29:41;311.63;;;69.20;;
19796;SDS011;10058;57.654;12.044;2023-09-19T03:32:07;311.25;;;67.28;;
19796;SDS011;10058;57.654;12.044;2023-09-19T03:34:35;309.83;;;69.60;;
19796;SDS011;10058;57.654;12.044;2023-09-19T03:37:02;312.35;;;68.00;;
19796;SDS011;10058;57.654;12.044;2023-09-19T03:39:28;310.90;;;67.55;;
19796;SDS011;10058;57.654;12.044;2023-09-19T03:41:54;308.60;;;64.67;;
19796;SDS011;10058;57.654;12.044;2023-09-19T03:44:19;307.37;;;64.30;;
19796;SDS011;10058;57.654;12.044;2023-09-19T03:46:44;308.85;;;65.28;;
19796;SDS011;10058;57.654;12.044;2023-09-19T03:49:09;311.70;;;66.07;;
19796;SDS011;10058;57.654;12.044;2023-09-19T03:51:35;309.43;;;63.63;;
19796;SDS011;10058;57.654;12.044;2023-09-19T03:54:00;308.03;;;63.40;;
19796;SDS011;10058;57.654;12.044;2023-09-19T03:56:25;315.47;;;65.00;;
19796;SDS011;10058;57.654;12.044;2023-09-19T03:58:51;313.67;;;64.83;;
19796;SDS011;10058;57.654;12.044;2023-09-19T04:01:16;316.07;;;64.53;;
19796;SDS011;10058;57.654;12.044;2023-09-19T04:03:43;306.88;;;59.78;;
19796;SDS011;10058;57.654;12.044;2023-09-19T04:06:15;317.98;;;65.97;;
19796;SDS011;10058;57.654;12.044;2023-09-19T04:08:41;307.52;;;61.72;;
19796;SDS011;10058;57.654;12.044;2023-09-19T04:11:07;315.42;;;65.68;;
19796;SDS011;10058;57.654;12.044;2023-09-19T04:13:33;308.40;;;63.43;;
19796;SDS011;10058;57.654;12.044;2023-09-19T04:15:58;310.95;;;63.92;;
19796;SDS011;10058;57.654;12.044;2023-09-19T04:18:23;311.07;;;64.83;;
19796;SDS011;10058;57.654;12.044;2023-09-19T04:20:49;329.43;;;74.77;;
19796;SDS011;10058;57.654;12.044;2023-09-19T04:23:15;313.88;;;66.10;;
19796;SDS011;10058;57.654;12.044;2023-09-19T04:25:40;310.38;;;60.72;;
19796;SDS011;10058;57.654;12.044;2023-09-19T04:28:06;311.88;;;63.15;;
19796;SDS011;10058;57.654;12.044;2023-09-19T04:30:31;319.90;;;65.65;;
19796;SDS011;10058;57.654;12.044;2023-09-19T04:32:56;317.27;;;65.60;;
19796;SDS011;10058;57.654;12.044;2023-09-19T04:35:22;315.47;;;64.73;;
19796;SDS011;10058;57.654;12.044;2023-09-19T04:37:47;311.93;;;62.47;;
19796;SDS011;10058;57.654;12.044;2023-09-19T04:40:13;310.73;;;63.03;;
19796;SDS011;10058;57.654;12.044;2023-09-19T04:42:42;313.98;;;64.50;;
19796;SDS011;10058;57.654;12.044;2023-09-19T04:45:08;312.15;;;62.85;;
19796;SDS011;10058;57.654;12.044;2023-09-19T04:47:35;313.63;;;62.30;;
19796;SDS011;10058;57.654;12.044;2023-09-19T04:50:03;314.50;;;63.50;;
19796;SDS011;10058;57.654;12.044;2023-09-19T04:52:30;317.23;;;63.38;;
19796;SDS011;10058;57.654;12.044;2023-09-19T04:54:56;312.77;;;61.67;;
19796;SDS011;10058;57.654;12.044;2023-09-19T04:57:21;284.73;;;53.87;;
19796;SDS011;10058;57.654;12.044;2023-09-19T04:59:46;273.37;;;51.37;;
19796;SDS011;10058;57.654;12.044;2023-09-19T05:02:12;293.00;;;55.10;;
19796;SDS011;10058;57.654;12.044;2023-09-19T05:04:37;303.67;;;57.25;;
19796;SDS011;10058;57.654;12.044;2023-09-19T05:07:03;308.13;;;58.03;;
19796;SDS011;10058;57.654;12.044;2023-09-19T05:09:29;300.67;;;57.03;;
19796;SDS011;10058;57.654;12.044;2023-09-19T05:11:54;312.60;;;59.93;;
19796;SDS011;10058;57.654;12.044;2023-09-19T05:14:19;308.77;;;59.77;;
19796;SDS011;10058;57.654;12.044;2023-09-19T05:16:46;305.25;;;57.08;;
19796;SDS011;10058;57.654;12.044;2023-09-19T05:19:11;309.47;;;57.53;;
19796;SDS011;10058;57.654;12.044;2023-09-19T05:21:36;291.10;;;55.03;;
19796;SDS011;10058;57.654;12.044;2023-09-19T05:24:04;307.27;;;56.55;;
19796;SDS011;10058;57.654;12.044;2023-09-19T05:26:31;297.92;;;55.13;;
19796;SDS011;10058;57.654;12.044;2023-09-19T05:28:57;284.02;;;52.65;;
19796;SDS011;10058;57.654;12.044;2023-09-19T05:31:22;295.20;;;55.80;;
19796;SDS011;10058;57.654;12.044;2023-09-19T05:33:49;308.08;;;55.58;;
19796;SDS011;10058;57.654;12.044;2023-09-19T05:36:15;303.33;;;58.67;;
19796;SDS011;10058;57.654;12.044;2023-09-19T05:38:41;311.45;;;58.78;;
19796;SDS011;10058;57.654;12.044;2023-09-19T05:41:07;303.02;;;56.83;;
19796;SDS011;10058;57.654;12.044;2023-09-19T05:43:34;315.80;;;59.33;;
19796;SDS011;10058;57.654;12.044;2023-09-19T05:46:02;308.52;;;58.10;;
19796;SDS011;10058;57.654;12.044;2023-09-19T05:48:27;309.33;;;58.05;;
19796;SDS011;10058;57.654;12.044;2023-09-19T05:50:53;313.60;;;59.87;;
19796;SDS011;10058;57.654;12.044;2023-09-19T05:53:18;314.90;;;58.88;;
19796;SDS011;10058;57.654;12.044;2023-09-19T05:55:43;312.30;;;58.53;;
19796;SDS011;10058;57.654;12.044;2023-09-19T05:58:09;307.83;;;57.53;;
19796;SDS011;10058;57.654;12.044;2023-09-19T06:00:35;300.23;;;56.15;;
19796;SDS011;10058;57.654;12.044;2023-09-19T06:03:01;291.45;;;54.25;;
19796;SDS011;10058;57.654;12.044;2023-09-19T06:05:27;254.97;;;50.93;;
19796;SDS011;10058;57.654;12.044;2023-09-19T06:07:53;269.30;;;49.90;;
19796;SDS011;10058;57.654;12.044;2023-09-19T06:10:18;269.53;;;49.37;;
19796;SDS011;10058;57.654;12.044;2023-09-19T06:12:45;253.85;;;45.53;;
19796;SDS011;10058;57.654;12.044;2023-09-19T06:15:12;254.07;;;47.55;;
19796;SDS011;10058;57.654;12.044;2023-09-19T06:17:40;273.00;;;48.20;;
19796;SDS011;10058;57.654;12.044;2023-09-19T06:20:12;281.90;;;50.35;;
19796;SDS011;10058;57.654;12.044;2023-09-19T06:22:44;253.43;;;47.00;;
19796;SDS011;10058;57.654;12.044;2023-09-19T06:25:11;262.23;;;48.90;;
19796;SDS011;10058;57.654;12.044;2023-09-19T06:27:40;304.50;;;56.03;;
19796;SDS011;10058;57.654;12.044;2023-09-19T06:30:07;309.33;;;59.30;;
19796;SDS011;10058;57.654;12.044;2023-09-19T06:32:34;303.73;;;55.87;;
19796;SDS011;10058;57.654;12.044;2023-09-19T06:35:01;313.45;;;59.47;;
19796;SDS011;10058;57.654;12.044;2023-09-19T06:37:27;311.70;;;59.37;;
19796;SDS011;10058;57.654;12.044;2023-09-19T06:39:53;312.00;;;58.83;;
19796;SDS011;10058;57.654;12.044;2023-09-19T06:42:18;311.53;;;59.53;;
19796;SDS011;10058;57.654;12.044;2023-09-19T06:44:44;311.90;;;59.77;;
19796;SDS011;10058;57.654;12.044;2023-09-19T06:47:09;310.27;;;58.77;;
19796;SDS011;10058;57.654;12.044;2023-09-19T06:49:35;311.15;;;58.58;;
19796;SDS011;10058;57.654;12.044;2023-09-19T06:52:01;313.77;;;59.27;;
19796;SDS011;10058;57.654;12.044;2023-09-19T06:54:27;315.57;;;60.00;;
19796;SDS011;10058;57.654;12.044;2023-09-19T06:56:56;310.55;;;57.20;;
19796;SDS011;10058;57.654;12.044;2023-09-19T06:59:22;308.13;;;58.13;;
19796;SDS011;10058;57.654;12.044;2023-09-19T07:01:48;300.83;;;56.60;;
19796;SDS011;10058;57.654;12.044;2023-09-19T07:04:14;295.25;;;55.13;;
19796;SDS011;10058;57.654;12.044;2023-09-19T07:06:39;279.97;;;53.80;;
19796;SDS011;10058;57.654;12.044;2023-09-19T07:09:05;275.00;;;51.60;;
19796;SDS011;10058;57.654;12.044;2023-09-19T07:11:31;284.08;;;52.00;;
19796;SDS011;10058;57.654;12.044;2023-09-19T07:13:57;279.47;;;51.23;;
19796;SDS011;10058;57.654;12.044;2023-09-19T07:16:23;297.07;;;56.10;;
19796;SDS011;10058;57.654;12.044;2023-09-19T07:18:54;289.20;;;54.03;;
19796;SDS011;10058;57.654;12.044;2023-09-19T07:21:20;291.10;;;53.30;;
19796;SDS011;10058;57.654;12.044;2023-09-19T07:23:46;298.53;;;56.50;;
19796;SDS011;10058;57.654;12.044;2023-09-19T07:26:11;293.90;;;54.73;;
19796;SDS011;10058;57.654;12.044;2023-09-19T07:28:37;285.00;;;52.10;;
19796;SDS011;10058;57.654;12.044;2023-09-19T07:31:02;286.40;;;52.47;;
19796;SDS011;10058;57.654;12.044;2023-09-19T07:33:32;283.15;;;51.92;;
19796;SDS011;10058;57.654;12.044;2023-09-19T07:35:57;292.70;;;52.60;;
19796;SDS011;10058;57.654;12.044;2023-09-19T07:38:22;281.17;;;53.05;;
19796;SDS011;10058;57.654;12.044;2023-09-19T07:40:47;280.33;;;52.80;;
19796;SDS011;10058;57.654;12.044;2023-09-19T07:43:13;285.00;;;52.20;;
19796;SDS011;10058;57.654;12.044;2023-09-19T07:45:38;265.23;;;50.33;;
19796;SDS011;10058;57.654;12.044;2023-09-19T07:48:04;284.48;;;51.75;;
19796;SDS011;10058;57.654;12.044;2023-09-19T07:50:32;290.08;;;51.72;;
19796;SDS011;10058;57.654;12.044;2023-09-19T07:52:59;269.08;;;50.58;;
19796;SDS011;10058;57.654;12.044;2023-09-19T07:55:24;279.60;;;51.73;;
19796;SDS011;10058;57.654;12.044;2023-09-19T07:57:51;310.92;;;58.45;;
19796;SDS011;10058;57.654;12.044;2023-09-19T08:00:17;310.02;;;59.10;;
19796;SDS011;10058;57.654;12.044;2023-09-19T08:02:43;315.17;;;60.23;;
19796;SDS011;10058;57.654;12.044;2023-09-19T08:05:09;307.13;;;58.53;;
19796;SDS011;10058;57.654;12.044;2023-09-19T08:07:36;310.42;;;58.33;;
19796;SDS011;10058;57.654;12.044;2023-09-19T08:10:06;311.80;;;59.10;;
19796;SDS011;10058;57.654;12.044;2023-09-19T08:12:40;315.30;;;59.92;;
19796;SDS011;10058;57.654;12.044;2023-09-19T08:15:14;310.45;;;59.03;;
19796;SDS011;10058;57.654;12.044;2023-09-19T08:17:41;306.92;;;56.63;;
19796;SDS011;10058;57.654;12.044;2023-09-19T08:20:06;307.60;;;56.37;;
19796;SDS011;10058;57.654;12.044;2023-09-19T08:22:32;309.75;;;57.47;;
19796;SDS011;10058;57.654;12.044;2023-09-19T08:24:58;312.07;;;58.77;;
19796;SDS011;10058;57.654;12.044;2023-09-19T08:27:24;307.83;;;58.13;;
19796;SDS011;10058;57.654;12.044;2023-09-19T08:29:52;307.40;;;57.22;;
19796;SDS011;10058;57.654;12.044;2023-09-19T08:32:17;310.80;;;58.72;;
19796;SDS011;10058;57.654;12.044;2023-09-19T08:34:44;304.77;;;58.28;;
19796;SDS011;10058;57.654;12.044;2023-09-19T08:37:10;304.40;;;56.63;;
19796;SDS011;10058;57.654;12.044;2023-09-19T08:39:35;307.87;;;57.30;;
19796;SDS011;10058;57.654;12.044;2023-09-19T08:42:02;309.58;;;57.83;;
19796;SDS011;10058;57.654;12.044;2023-09-19T08:44:28;299.65;;;56.70;;
19796;SDS011;10058;57.654;12.044;2023-09-19T08:50:15;311.13;;;60.15;;
19796;SDS011;10058;57.654;12.044;2023-09-19T08:52:44;310.50;;;58.33;;
19796;SDS011;10058;57.654;12.044;2023-09-19T08:55:12;310.35;;;58.38;;
19796;SDS011;10058;57.654;12.044;2023-09-19T08:57:45;308.10;;;57.30;;
19796;SDS011;10058;57.654;12.044;2023-09-19T09:00:14;311.00;;;58.35;;
19796;SDS011;10058;57.654;12.044;2023-09-19T09:02:42;311.15;;;58.42;;
19796;SDS011;10058;57.654;12.044;2023-09-19T09:05:08;308.37;;;57.73;;
19796;SDS011;10058;57.654;12.044;2023-09-19T09:07:35;312.30;;;58.33;;
19796;SDS011;10058;57.654;12.044;2023-09-19T09:10:05;305.45;;;57.47;;
19796;SDS011;10058;57.654;12.044;2023-09-19T09:12:31;308.38;;;57.22;;
19796;SDS011;10058;57.654;12.044;2023-09-19T09:14:56;297.77;;;55.23;;
19796;SDS011;10058;57.654;12.044;2023-09-19T09:17:25;289.85;;;52.95;;
19796;SDS011;10058;57.654;12.044;2023-09-19T09:19:53;293.92;;;53.95;;
19796;SDS011;10058;57.654;12.044;2023-09-19T09:22:19;296.48;;;54.08;;
19796;SDS011;10058;57.654;12.044;2023-09-19T09:24:55;303.08;;;56.17;;
19796;SDS011;10058;57.654;12.044;2023-09-19T09:27:29;294.43;;;54.37;;
19796;SDS011;10058;57.654;12.044;2023-09-19T09:29:56;305.58;;;56.10;;
19796;SDS011;10058;57.654;12.044;2023-09-19T09:32:25;301.17;;;55.47;;
19796;SDS011;10058;57.654;12.044;2023-09-19T09:34:54;292.08;;;53.17;;
19796;SDS011;10058;57.654;12.044;2023-09-19T09:37:21;298.42;;;53.92;;
19796;SDS011;10058;57.654;12.044;2023-09-19T09:42:28;286.45;;;52.22;;
19796;SDS011;10058;57.654;12.044;2023-09-19T09:45:19;294.55;;;54.17;;
19796;SDS011;10058;57.654;12.044;2023-09-19T09:47:58;288.50;;;52.47;;
19796;SDS011;10058;57.654;12.044;2023-09-19T09:53:28;280.92;;;50.92;;
19796;SDS011;10058;57.654;12.044;2023-09-19T09:58:22;275.00;;;49.50;;
19796;SDS011;10058;57.654;12.044;2023-09-19T10:00:54;271.90;;;47.90;;
19796;SDS011;10058;57.654;12.044;2023-09-19T10:03:31;290.17;;;51.63;;
19796;SDS011;10058;57.654;12.044;2023-09-19T10:05:59;274.52;;;49.67;;
19796;SDS011;10058;57.654;12.044;2023-09-19T10:08:27;265.10;;;47.67;;
19796;SDS011;10058;57.654;12.044;2023-09-19T10:10:56;278.33;;;49.20;;
19796;SDS011;10058;57.654;12.044;2023-09-19T10:13:29;274.15;;;48.28;;
19796;SDS011;10058;57.654;12.044;2023-09-19T10:15:56;268.97;;;49.30;;
19796;SDS011;10058;57.654;12.044;2023-09-19T10:18:24;276.40;;;49.78;;
19796;SDS011;10058;57.654;12.044;2023-09-19T10:20:53;286.40;;;49.72;;
19796;SDS011;10058;57.654;12.044;2023-09-19T10:23:20;272.70;;;48.53;;
19796;SDS011;10058;57.654;12.044;2023-09-19T10:25:51;290.17;;;51.17;;
19796;SDS011;10058;57.654;12.044;2023-09-19T10:28:17;276.63;;;50.05;;
19796;SDS011;10058;57.654;12.044;2023-09-19T10:30:47;267.40;;;49.00;;
19796;SDS011;10058;57.654;12.044;2023-09-19T10:33:15;269.90;;;52.45;;
19796;SDS011;10058;57.654;12.044;2023-09-19T10:35:44;285.77;;;50.72;;
19796;SDS011;10058;57.654;12.044;2023-09-19T10:38:11;280.50;;;50.30;;
19796;SDS011;10058;57.654;12.044;2023-09-19T10:40:38;289.17;;;51.83;;
19796;SDS011;10058;57.654;12.044;2023-09-19T10:43:12;284.65;;;50.83;;
19796;SDS011;10058;57.654;12.044;2023-09-19T10:45:40;296.58;;;52.88;;
19796;SDS011;10058;57.654;12.044;2023-09-19T10:48:06;293.75;;;55.13;;
19796;SDS011;10058;57.654;12.044;2023-09-19T10:50:36;294.73;;;53.70;;
19796;SDS011;10058;57.654;12.044;2023-09-19T10:53:10;302.05;;;56.60;;
19796;SDS011;10058;57.654;12.044;2023-09-19T10:55:37;296.83;;;53.90;;
19796;SDS011;10058;57.654;12.044;2023-09-19T10:58:03;297.95;;;53.90;;
19796;SDS011;10058;57.654;12.044;2023-09-19T11:00:58;298.23;;;53.78;;
19796;SDS011;10058;57.654;12.044;2023-09-19T11:03:32;310.42;;;58.72;;
19796;SDS011;10058;57.654;12.044;2023-09-19T11:06:02;286.45;;;53.28;;
19796;SDS011;10058;57.654;12.044;2023-09-19T11:09:02;291.63;;;54.80;;
19796;SDS011;10058;57.654;12.044;2023-09-19T11:30:45;293.85;;;54.00;;
19796;SDS011;10058;57.654;12.044;2023-09-19T11:41:37;308.30;;;58.25;;
19796;SDS011;10058;57.654;12.044;2023-09-19T11:49:16;306.83;;;57.45;;
19796;SDS011;10058;57.654;12.044;2023-09-19T11:51:46;302.88;;;55.42;;
19796;SDS011;10058;57.654;12.044;2023-09-19T11:54:13;307.23;;;58.58;;
19796;SDS011;10058;57.654;12.044;2023-09-19T11:56:55;306.48;;;57.80;;
19796;SDS011;10058;57.654;12.044;2023-09-19T11:59:22;308.10;;;58.72;;
19796;SDS011;10058;57.654;12.044;2023-09-19T12:01:56;304.67;;;57.42;;
19796;SDS011;10058;57.654;12.044;2023-09-19T12:07:10;308.00;;;58.08;;
19796;SDS011;10058;57.654;12.044;2023-09-19T12:09:40;308.92;;;58.53;;
19796;SDS011;10058;57.654;12.044;2023-09-19T12:12:22;307.83;;;58.38;;
19796;SDS011;10058;57.654;12.044;2023-09-19T12:14:52;303.23;;;55.75;;
19796;SDS011;10058;57.654;12.044;2023-09-19T12:17:18;306.40;;;57.40;;
19796;SDS011;10058;57.654;12.044;2023-09-19T12:19:51;307.92;;;57.65;;
19796;SDS011;10058;57.654;12.044;2023-09-19T12:22:20;305.92;;;56.67;;
19796;SDS011;10058;57.654;12.044;2023-09-19T12:24:46;305.87;;;56.03;;
19796;SDS011;10058;57.654;12.044;2023-09-19T12:27:11;305.93;;;56.17;;
19796;SDS011;10058;57.654;12.044;2023-09-19T12:29:47;301.67;;;54.13;;
19796;SDS011;10058;57.654;12.044;2023-09-19T12:32:33;302.70;;;55.75;;
19796;SDS011;10058;57.654;12.044;2023-09-19T12:35:05;303.67;;;56.15;;
19796;SDS011;10058;57.654;12.044;2023-09-19T12:37:36;304.23;;;55.35;;
19796;SDS011;10058;57.654;12.044;2023-09-19T12:40:13;298.30;;;53.53;;
19796;SDS011;10058;57.654;12.044;2023-09-19T12:42:47;307.58;;;56.58;;
19796;SDS011;10058;57.654;12.044;2023-09-19T12:45:14;307.40;;;56.08;;
19796;SDS011;10058;57.654;12.044;2023-09-19T12:53:31;306.08;;;55.78;;
19796;SDS011;10058;57.654;12.044;2023-09-19T12:55:59;309.70;;;58.40;;
19796;SDS011;10058;57.654;12.044;2023-09-19T12:58:25;306.47;;;56.17;;
19796;SDS011;10058;57.654;12.044;2023-09-19T13:00:50;307.93;;;57.23;;
19796;SDS011;10058;57.654;12.044;2023-09-19T13:05:53;303.45;;;55.65;;
19796;SDS011;10058;57.654;12.044;2023-09-19T13:08:33;309.60;;;58.17;;
19796;SDS011;10058;57.654;12.044;2023-09-19T13:11:10;309.02;;;58.30;;
19796;SDS011;10058;57.654;12.044;2023-09-19T13:16:09;307.83;;;57.35;;
19796;SDS011;10058;57.654;12.044;2023-09-19T13:18:45;310.33;;;58.60;;
19796;SDS011;10058;57.654;12.044;2023-09-19T13:21:26;310.52;;;58.30;;
19796;SDS011;10058;57.654;12.044;2023-09-19T13:23:54;308.10;;;57.22;;
19796;SDS011;10058;57.654;12.044;2023-09-19T13:26:27;309.25;;;57.67;;
19796;SDS011;10058;57.654;12.044;2023-09-19T13:28:53;297.67;;;56.42;;
19796;SDS011;10058;57.654;12.044;2023-09-19T13:31:19;303.42;;;55.58;;
19796;SDS011;10058;57.654;12.044;2023-09-19T13:33:45;292.77;;;54.40;;
19796;SDS011;10058;57.654;12.044;2023-09-19T13:36:11;299.02;;;55.05;;
19796;SDS011;10058;57.654;12.044;2023-09-19T13:38:38;295.60;;;53.92;;
19796;SDS011;10058;57.654;12.044;2023-09-19T13:41:03;303.40;;;55.60;;
19796;SDS011;10058;57.654;12.044;2023-09-19T13:43:29;304.07;;;56.07;;
19796;SDS011;10058;57.654;12.044;2023-09-19T13:45:54;299.23;;;56.03;;
19796;SDS011;10058;57.654;12.044;2023-09-19T13:48:19;309.03;;;57.73;;
19796;SDS011;10058;57.654;12.044;2023-09-19T13:50:47;309.27;;;57.83;;
19796;SDS011;10058;57.654;12.044;2023-09-19T13:53:13;307.33;;;57.25;;
19796;SDS011;10058;57.654;12.044;2023-09-19T13:55:39;300.80;;;55.47;;
19796;SDS011;10058;57.654;12.044;2023-09-19T13:58:05;302.60;;;55.45;;
19796;SDS011;10058;57.654;12.044;2023-09-19T14:00:32;304.75;;;56.25;;
19796;SDS011;10058;57.654;12.044;2023-09-19T14:03:00;303.30;;;58.55;;
19796;SDS011;10058;57.654;12.044;2023-09-19T14:05:26;307.80;;;57.45;;
19796;SDS011;10058;57.654;12.044;2023-09-19T14:07:53;311.38;;;59.33;;
19796;SDS011;10058;57.654;12.044;2023-09-19T14:10:20;310.20;;;58.88;;
19796;SDS011;10058;57.654;12.044;2023-09-19T14:12:46;306.80;;;56.38;;
19796;SDS011;10058;57.654;12.044;2023-09-19T14:15:13;308.00;;;57.90;;
19796;SDS011;10058;57.654;12.044;2023-09-19T14:17:39;307.92;;;57.88;;
19796;SDS011;10058;57.654;12.044;2023-09-19T14:20:07;307.27;;;58.90;;
19796;SDS011;10058;57.654;12.044;2023-09-19T14:22:35;310.17;;;59.08;;
19796;SDS011;10058;57.654;12.044;2023-09-19T14:25:01;310.25;;;59.35;;
19796;SDS011;10058;57.654;12.044;2023-09-19T14:27:27;308.80;;;59.10;;
19796;SDS011;10058;57.654;12.044;2023-09-19T14:29:53;307.30;;;58.30;;
19796;SDS011;10058;57.654;12.044;2023-09-19T14:32:18;307.27;;;57.97;;
19796;SDS011;10058;57.654;12.044;2023-09-19T14:34:44;308.20;;;58.43;;
19796;SDS011;10058;57.654;12.044;2023-09-19T14:37:09;310.70;;;60.43;;
19796;SDS011;10058;57.654;12.044;2023-09-19T14:39:36;309.60;;;59.03;;
19796;SDS011;10058;57.654;12.044;2023-09-19T14:42:03;304.50;;;56.93;;
19796;SDS011;10058;57.654;12.044;2023-09-19T14:44:29;309.00;;;58.42;;
19796;SDS011;10058;57.654;12.044;2023-09-19T14:46:54;312.95;;;61.05;;
19796;SDS011;10058;57.654;12.044;2023-09-19T14:49:20;312.40;;;60.75;;
19796;SDS011;10058;57.654;12.044;2023-09-19T14:51:45;311.30;;;59.60;;
19796;SDS011;10058;57.654;12.044;2023-09-19T14:54:12;315.90;;;60.88;;
19796;SDS011;10058;57.654;12.044;2023-09-19T14:56:37;312.70;;;59.70;;
19796;SDS011;10058;57.654;12.044;2023-09-19T14:59:03;312.13;;;59.63;;
19796;SDS011;10058;57.654;12.044;2023-09-19T15:01:28;309.75;;;57.72;;
19796;SDS011;10058;57.654;12.044;2023-09-19T15:03:54;309.90;;;57.67;;
19796;SDS011;10058;57.654;12.044;2023-09-19T15:06:20;310.60;;;58.10;;
19796;SDS011;10058;57.654;12.044;2023-09-19T15:08:47;307.98;;;56.13;;
19796;SDS011;10058;57.654;12.044;2023-09-19T15:11:16;308.67;;;55.42;;